Terminal Aerodrome Forecast
Issued by NWS

Home | Current Version | Previous Version | Text Only | Print | Product List | Glossary On
Versions: 1 2 3 4 5 6 7 8 9 10 11 12 13 14 15 16 17 18 19 20 21 22 23 24 25 26 27 28 29 30 31
000
FTUS43 KDVN 292219 AAA
TAFBRL
TAF AMD
KBRL 292219Z 2922/3018 VRB03KT P6SM VCSH SCT025 BKN035
      TEMPO 2922/3002 BKN025
     FM300200 35002KT 6SM BR BKN025
     FM300800 00000KT 1SM BR OVC006
      TEMPO 3009/3013 1/2SM FG VV002
     FM301500 VRB03KT 3SM BR BKN008
     FM301700 VRB04KT P6SM SCT008 BKN020=

USA.gov is the U.S. government's official web portal to all federal, state and local government web resources and services.